Time;durP1;ratioP1;P1;durP2;ratioP2;P2;SDS_P1;SDS_P2;PMS_P1;PMS_P2;Temp;Humidity;BMP_temperature;BMP_pressure;BME280_temperature;BME280_humidity;BME280_pressure;Samples;Min_cycle;Max_cycle;Signal;HPM_P1;HPM_P2
2023/07/01 00:01:19;;;;;;;6.30;3.03;;;;;;;21.97;55.84;99240.47;3163808;28;20051;-64
2023/07/01 00:02:52;;;;;;;3.75;2.83;;;;;;;21.95;55.71;99231.84;3169123;28;20449;-64
2023/07/01 00:04:24;;;;;;;4.50;3.17;;;;;;;21.94;55.51;99232.81;3170728;28;20052;-64
2023/07/01 00:05:56;;;;;;;6.32;4.07;;;;;;;21.94;55.87;99235.47;3170667;28;20063;-63
2023/07/01 00:07:28;;;;;;;5.68;3.47;;;;;;;21.95;55.69;99231.03;3168449;28;20456;-64
2023/07/01 00:09:00;;;;;;;7.75;3.53;;;;;;;21.95;56.15;99226.56;3170492;28;20058;-63
2023/07/01 00:10:32;;;;;;;7.63;3.92;;;;;;;21.95;56.02;99234.50;3170138;28;20543;-63
2023/07/01 00:12:03;;;;;;;8.05;3.65;;;;;;;21.96;55.78;99233.50;3170514;28;20048;-63
2023/07/01 00:13:35;;;;;;;6.25;4.25;;;;;;;21.96;55.88;99233.50;3170633;28;20137;-63
2023/07/01 00:15:08;;;;;;;5.43;3.90;;;;;;;21.97;56.06;99229.03;3170397;28;20054;-63
2023/07/01 00:16:41;;;;;;;5.57;4.07;;;;;;;21.96;55.96;99233.50;3167077;28;20528;-63
2023/07/01 00:18:13;;;;;;;6.10;3.60;;;;;;;21.96;55.95;99227.38;3162356;28;20054;-63
2023/07/01 00:19:45;;;;;;;7.68;3.58;;;;;;;21.97;56.31;99231.69;3170461;28;20050;-63
2023/07/01 00:21:16;;;;;;;5.78;4.00;;;;;;;21.96;56.21;99227.38;3169027;28;20048;-63
2023/07/01 00:22:47;;;;;;;6.25;4.07;;;;;;;21.94;56.04;99227.53;3159928;28;20048;-63
2023/07/01 00:24:19;;;;;;;6.70;3.50;;;;;;;21.91;56.53;99225.19;3170035;28;20465;-63
2023/07/01 00:25:50;;;;;;;6.40;4.00;;;;;;;21.91;56.39;99225.19;3170445;28;20050;-63
2023/07/01 00:27:22;;;;;;;5.28;4.05;;;;;;;21.91;56.14;99221.72;3170513;28;20051;-63
2023/07/01 00:28:54;;;;;;;6.03;3.80;;;;;;;21.89;56.26;99221.03;3170094;28;20266;-63
2023/07/01 00:30:26;;;;;;;10.40;4.18;;;;;;;21.89;56.49;99221.88;3170219;28;20176;-63
2023/07/01 00:31:59;;;;;;;7.38;3.75;;;;;;;21.90;56.60;99220.88;3170310;28;20048;-63
2023/07/01 00:33:30;;;;;;;7.03;4.22;;;;;;;21.87;56.47;99229.16;3170198;28;20069;-64
2023/07/01 00:35:02;;;;;;;5.68;3.78;;;;;;;21.83;56.56;99221.66;3170192;28;20550;-63
2023/07/01 00:36:32;;;;;;;5.60;3.67;;;;;;;21.84;56.48;99224.16;3166803;28;20094;-64
2023/07/01 00:38:04;;;;;;;6.70;3.78;;;;;;;21.81;56.85;99217.34;3164266;28;20048;-64
2023/07/01 00:39:36;;;;;;;5.45;4.15;;;;;;;21.83;56.62;99230.47;3168468;28;20487;-64
2023/07/01 00:41:08;;;;;;;7.05;4.03;;;;;;;21.79;56.84;99223.78;3169907;28;20118;-64
2023/07/01 00:42:39;;;;;;;6.43;3.45;;;;;;;21.75;56.32;99225.91;3167022;28;20059;-64
2023/07/01 00:44:10;;;;;;;6.68;4.40;;;;;;;21.73;56.68;99227.06;3160430;28;20050;-64
2023/07/01 00:45:42;;;;;;;4.75;3.85;;;;;;;21.72;56.79;99225.41;3161319;28;20074;-64
2023/07/01 00:47:16;;;;;;;7.55;4.18;;;;;;;21.72;56.38;99228.88;3170134;28;20051;-64
2023/07/01 00:48:47;;;;;;;;;;;;;;;21.55;56.94;99229.75;3170254;28;20044;-64
2023/07/01 00:50:19;;;;;;;4.82;3.72;;;;;;;21.61;56.82;99233.59;3170262;28;19931;-64
2023/07/01 00:51:51;;;;;;;6.95;3.42;;;;;;;21.62;56.65;99230.78;3164203;28;20056;-63
2023/07/01 00:53:23;;;;;;;6.78;4.32;;;;;;;21.62;56.45;99230.78;3170181;28;20058;-63
2023/07/01 00:54:57;;;;;;;7.70;3.63;;;;;;;21.55;56.68;99227.09;3169885;28;20153;-63
2023/07/01 00:56:29;;;;;;;7.32;4.10;;;;;;;21.58;56.93;99234.72;3169603;28;20077;-63
2023/07/01 00:58:00;;;;;;;4.95;3.88;;;;;;;21.58;56.93;99230.25;3169910;28;20504;-64
2023/07/01 00:59:33;;;;;;;7.05;3.63;;;;;;;21.58;56.76;99229.44;3169627;28;20053;-64
2023/07/01 01:01:10;;;;;;;5.63;3.83;;;;;;;21.57;56.66;99230.44;3163104;28;20052;-63
2023/07/01 01:02:51;;;;;;;9.18;4.05;;;;;;;21.57;56.69;99225.94;3166891;28;20048;-65
2023/07/01 01:04:31;;;;;;;9.70;3.97;;;;;;;21.58;56.74;99227.59;3169689;28;20618;-65
2023/07/01 01:06:08;;;;;;;5.85;3.83;;;;;;;21.49;56.80;99209.97;3170050;28;20054;-65
2023/07/01 01:07:50;;;;;;;9.25;4.38;;;;;;;21.58;57.14;99227.59;3170262;28;20048;-65
2023/07/01 01:09:30;;;;;;;7.43;3.88;;;;;;;21.55;56.67;99225.25;3169788;28;20058;-65
2023/07/01 01:11:03;;;;;;;7.13;3.95;;;;;;;21.45;56.97;99208.63;3169773;28;20440;-63
2023/07/01 01:12:36;;;;;;;5.70;4.45;;;;;;;21.52;56.94;99220.28;3169971;28;20046;-65
2023/07/01 01:14:12;;;;;;;5.43;4.18;;;;;;;21.52;56.91;99214.97;3168598;28;20055;-64
2023/07/01 01:15:44;;;;;;;6.15;4.03;;;;;;;21.52;57.10;99220.28;3167433;28;20055;-65
2023/07/01 01:17:18;;;;;;;6.63;4.03;;;;;;;21.51;57.07;99225.75;3161190;28;20082;-65
2023/07/01 01:18:53;;;;;;;6.10;4.20;;;;;;;21.52;57.02;99219.44;3166006;28;20050;-65
2023/07/01 01:20:28;;;;;;;11.45;3.88;;;;;;;21.52;56.97;99217.63;3169896;28;20047;-65
2023/07/01 01:22:15;;;;;;;9.40;4.05;;;;;;;21.45;56.89;99206.00;3162536;28;20118;-65
2023/07/01 01:23:53;;;;;;;11.13;4.40;;;;;;;21.52;57.21;99212.31;3166690;28;20097;-64
2023/07/01 01:25:29;;;;;;;9.32;4.50;;;;;;;21.50;56.97;99216.97;3169576;28;20044;-65
2023/07/01 01:27:04;;;;;;;5.85;4.45;;;;;;;21.49;57.04;99217.94;3169922;28;20056;-65
2023/07/01 01:28:38;;;;;;;8.38;4.55;;;;;;;21.49;57.15;99220.59;3169943;28;20055;-65
2023/07/01 01:30:09;;;;;;;;;;;;;;;21.32;57.01;99224.03;3161895;28;20441;-65
2023/07/01 01:31:42;;;;;;;7.07;4.05;;;;;;;21.38;57.43;99220.81;3169935;28;19919;-65
2023/07/01 01:33:13;;;;;;;13.38;4.60;;;;;;;21.41;57.33;99209.91;3169706;28;20101;-64
2023/07/01 01:34:44;;;;;;;7.88;4.18;;;;;;;21.43;57.45;99213.25;3169705;28;20502;-64
2023/07/01 01:36:24;;;;;;;10.45;4.10;;;;;;;21.47;57.07;99214.59;3163235;28;20189;-64
2023/07/01 01:38:03;;;;;;;5.97;3.97;;;;;;;21.36;57.25;99206.91;3162559;28;20503;-64
2023/07/01 01:39:42;;;;;;;7.80;4.55;;;;;;;21.40;57.38;99218.03;3169418;28;20043;-64
2023/07/01 01:41:18;;;;;;;5.72;4.38;;;;;;;21.32;57.57;99210.81;3169816;28;20048;-64
2023/07/01 01:42:51;;;;;;;9.65;5.05;;;;;;;21.32;57.45;99213.44;3165134;28;20059;-65
2023/07/01 01:44:31;;;;;;;5.72;4.63;;;;;;;21.27;57.57;99216.56;3166367;28;20040;-64
2023/07/01 01:46:04;;;;;;;7.68;4.18;;;;;;;21.23;58.08;99214.34;3169380;28;20044;-64
2023/07/01 01:47:36;;;;;;;;;;;;;;;21.01;57.85;99216.47;3170239;28;20134;-64
2023/07/01 01:49:10;;;;;;;4.88;4.38;;;;;;;21.08;57.90;99220.19;3169803;28;19939;-64
2023/07/01 01:50:43;;;;;;;6.70;4.65;;;;;;;21.06;58.01;99214.22;3169926;28;20425;-65
2023/07/01 01:52:15;;;;;;;;;;;;;;;20.88;58.15;99235.38;3165425;28;20413;-65
2023/07/01 01:53:48;;;;;;;6.03;4.30;;;;;;;20.94;58.38;99219.88;3171782;28;19980;-65
2023/07/01 01:55:21;;;;;;;7.13;4.18;;;;;;;20.94;58.49;99226.03;3172327;28;20055;-67
2023/07/01 01:56:54;;;;;;;6.78;4.68;;;;;;;20.92;58.69;99229.78;3171914;28;20051;-66
2023/07/01 01:58:26;;;;;;;17.70;4.72;;;;;;;20.89;58.53;99233.56;3172016;28;20044;-66
2023/07/01 01:59:59;;;;;;;6.28;4.50;;;;;;;20.90;58.77;99236.03;3172224;28;20051;-66
2023/07/01 02:01:31;;;;;;;10.02;5.20;;;;;;;20.88;58.55;99234.53;3161564;28;20051;-66
2023/07/01 02:03:03;;;;;;;6.53;4.35;;;;;;;20.89;58.63;99242.34;3171546;28;20047;-66
2023/07/01 02:04:34;;;;;;;7.63;4.38;;;;;;;20.90;58.72;99236.03;3167867;28;20409;-66
2023/07/01 02:06:06;;;;;;;9.98;4.85;;;;;;;20.89;58.45;99241.50;3170366;28;20079;-66
2023/07/01 02:07:38;;;;;;;6.22;4.47;;;;;;;20.89;58.50;99237.03;3169180;28;20109;-67
2023/07/01 02:09:10;;;;;;;7.38;4.45;;;;;;;20.88;58.73;99232.75;3166266;28;20540;-67
2023/07/01 02:10:41;;;;;;;5.68;4.45;;;;;;;20.90;58.40;99246.63;3168097;28;20055;-66
2023/07/01 02:12:12;;;;;;;8.60;4.60;;;;;;;20.93;58.73;99240.22;3172117;28;20047;-67
2023/07/01 02:13:44;;;;;;;6.53;4.40;;;;;;;20.92;58.75;99249.16;3171640;28;20140;-67
2023/07/01 02:15:17;;;;;;;12.90;4.72;;;;;;;20.93;58.45;99249.97;3171651;28;20050;-67
2023/07/01 02:16:49;;;;;;;9.38;4.65;;;;;;;20.85;58.84;99248.91;3167054;28;20059;-67
2023/07/01 02:18:21;;;;;;;6.57;4.65;;;;;;;20.80;59.08;99245.88;3164469;28;20059;-67
2023/07/01 02:19:52;;;;;;;7.35;4.75;;;;;;;20.81;59.14;99244.06;3172099;28;20040;-67
2023/07/01 02:21:24;;;;;;;7.47;4.38;;;;;;;20.82;59.10;99238.63;3169096;28;20044;-67
2023/07/01 02:22:56;;;;;;;10.10;5.22;;;;;;;20.84;59.15;99243.75;3161715;28;20048;-66
2023/07/01 02:24:28;;;;;;;7.88;4.65;;;;;;;20.85;58.78;99235.69;3171717;28;20047;-64
2023/07/01 02:26:00;;;;;;;9.07;5.00;;;;;;;20.85;58.58;99233.03;3171516;28;20063;-64
2023/07/01 02:27:31;;;;;;;6.18;4.88;;;;;;;20.83;58.93;99232.34;3171472;28;20450;-63
2023/07/01 02:29:03;;;;;;;9.15;4.85;;;;;;;20.84;59.04;99230.53;3146851;28;20055;-63
2023/07/01 02:30:37;;;;;;;7.47;4.85;;;;;;;20.84;58.73;99236.66;3170970;28;20063;-63
2023/07/01 02:32:09;;;;;;;6.60;4.40;;;;;;;20.82;58.76;99232.47;3164701;28;20414;-64
2023/07/01 02:33:41;;;;;;;6.18;4.65;;;;;;;20.80;58.96;99232.66;3170556;28;20086;-64
2023/07/01 02:35:13;;;;;;;7.82;5.00;;;;;;;20.82;59.05;99232.47;3170819;28;20048;-63
2023/07/01 02:36:45;;;;;;;5.75;4.50;;;;;;;20.83;58.95;99231.50;3159314;28;20048;-63
2023/07/01 02:38:17;;;;;;;8.90;5.05;;;;;;;20.85;58.77;99232.19;3167465;28;20047;-63
2023/07/01 02:39:48;;;;;;;7.70;4.75;;;;;;;20.81;58.82;99229.00;3171674;28;20054;-63
2023/07/01 02:41:20;;;;;;;7.78;5.22;;;;;;;20.82;58.79;99240.41;3171461;28;20059;-63
2023/07/01 02:42:51;;;;;;;5.82;4.32;;;;;;;20.78;58.68;99237.25;3166001;28;20415;-63
2023/07/01 02:44:23;;;;;;;7.70;5.70;;;;;;;20.76;58.84;99238.38;3163740;28;20047;-63
2023/07/01 02:45:56;;;;;;;7.85;4.72;;;;;;;20.76;59.12;99235.72;3171196;28;20054;-63
2023/07/01 02:47:27;;;;;;;9.05;6.30;;;;;;;20.75;59.17;99240.19;3171383;28;20448;-63
2023/07/01 02:48:59;;;;;;;6.55;4.82;;;;;;;20.75;58.99;99231.41;3171477;28;20056;-63
2023/07/01 02:50:31;;;;;;;7.57;5.03;;;;;;;20.71;58.99;99232.72;3171657;28;20047;-63
2023/07/01 02:52:02;;;;;;;9.55;5.75;;;;;;;20.71;59.32;99232.72;3164839;28;20055;-63
2023/07/01 02:53:34;;;;;;;6.07;4.70;;;;;;;20.68;59.44;99242.59;3170950;28;20057;-63
2023/07/01 02:55:07;;;;;;;8.13;5.32;;;;;;;20.70;59.31;99233.66;3171610;28;20586;-63
2023/07/01 02:56:38;;;;;;;8.55;5.38;;;;;;;20.65;59.22;99240.25;3170640;28;20109;-63
2023/07/01 02:58:09;;;;;;;7.90;5.35;;;;;;;20.63;59.27;99249.31;3160341;28;20405;-63
2023/07/01 02:59:41;;;;;;;7.22;4.85;;;;;;;20.59;59.27;99237.38;3169062;28;20048;-63
2023/07/01 03:01:14;;;;;;;8.63;5.03;;;;;;;20.58;59.71;99246.25;3162766;28;20051;-65
2023/07/01 03:02:46;;;;;;;6.97;5.10;;;;;;;20.52;59.39;99241.53;3167207;28;20055;-65
2023/07/01 03:04:17;;;;;;;7.15;5.15;;;;;;;20.51;59.43;99243.34;3171561;28;20313;-65
2023/07/01 03:05:48;;;;;;;6.00;4.97;;;;;;;20.53;59.31;99245.84;3171240;28;20047;-65
2023/07/01 03:07:20;;;;;;;7.00;4.43;;;;;;;20.54;59.48;99242.25;3167500;28;20178;-65
2023/07/01 03:08:52;;;;;;;6.25;4.80;;;;;;;20.53;59.56;99236.13;3171024;28;20437;-65
2023/07/01 03:10:24;;;;;;;7.00;4.85;;;;;;;20.57;59.43;99240.13;3171392;28;20447;-65
2023/07/01 03:11:56;;;;;;;8.93;5.18;;;;;;;20.57;59.47;99236.66;3171024;28;20133;-65
2023/07/01 03:13:27;;;;;;;8.05;4.60;;;;;;;20.59;59.41;99235.53;3170867;28;20055;-65
2023/07/01 03:14:58;;;;;;;7.25;4.82;;;;;;;20.58;59.67;99235.69;3170990;28;20160;-65
2023/07/01 03:16:32;;;;;;;7.40;5.40;;;;;;;20.60;59.68;99239.84;3169142;28;20051;-65
2023/07/01 03:18:04;;;;;;;6.90;5.20;;;;;;;20.59;59.54;99232.06;3159773;28;20074;-64
2023/07/01 03:19:35;;;;;;;8.25;4.38;;;;;;;20.60;59.40;99231.09;3170990;28;20113;-64
2023/07/01 03:21:08;;;;;;;7.43;4.43;;;;;;;20.61;59.29;99228.28;3171270;28;20059;-64
2023/07/01 03:22:40;;;;;;;8.75;4.72;;;;;;;20.61;59.55;99230.91;3171172;28;20100;-64
2023/07/01 03:24:12;;;;;;;7.40;4.80;;;;;;;20.61;59.78;99222.97;3170982;28;20051;-64
2023/07/01 03:25:44;;;;;;;8.27;4.43;;;;;;;20.62;59.37;99227.31;3171175;28;20063;-65
2023/07/01 03:27:16;;;;;;;12.50;5.35;;;;;;;20.62;59.46;99226.50;3170888;28;20043;-64
2023/07/01 03:28:48;;;;;;;8.00;5.05;;;;;;;20.59;59.40;99226.78;3170155;28;20452;-65
2023/07/01 03:30:28;;;;;;;10.73;5.40;;;;;;;20.56;59.38;99222.63;3171074;28;20048;-65
2023/07/01 03:32:03;;;;;;;11.23;4.80;;;;;;;20.56;59.65;99219.97;3165641;28;20044;-65
2023/07/01 03:33:35;;;;;;;6.60;4.70;;;;;;;20.57;59.49;99221.63;3167618;28;20059;-65
2023/07/01 03:35:09;;;;;;;7.82;4.38;;;;;;;20.58;59.67;99225.09;3171250;28;20146;-65
2023/07/01 03:36:41;;;;;;;8.07;5.05;;;;;;;20.55;59.65;99223.56;3165744;28;20044;-65
2023/07/01 03:38:13;;;;;;;8.38;5.00;;;;;;;20.56;59.43;99221.78;3165991;28;20055;-65
2023/07/01 03:39:45;;;;;;;7.40;4.30;;;;;;;20.58;59.29;99228.56;3170004;28;20040;-65
2023/07/01 03:41:17;;;;;;;8.25;5.50;;;;;;;20.59;59.27;99226.78;3170798;28;20048;-66
2023/07/01 03:42:48;;;;;;;12.35;5.10;;;;;;;20.59;59.41;99232.91;3169503;28;20048;-64
2023/07/01 03:44:20;;;;;;;7.13;5.25;;;;;;;20.62;59.20;99231.78;3170865;28;20071;-64
2023/07/01 03:45:52;;;;;;;7.05;5.10;;;;;;;20.63;59.14;99239.56;3170830;28;20059;-64
2023/07/01 03:47:25;;;;;;;6.22;4.60;;;;;;;20.64;59.36;99230.63;3158810;28;20496;-65
2023/07/01 03:48:57;;;;;;;10.52;4.68;;;;;;;20.60;59.40;99237.19;3170379;28;20529;-65
2023/07/01 03:50:30;;;;;;;13.20;5.00;;;;;;;20.59;59.32;99234.72;3170564;28;20058;-64
2023/07/01 03:52:03;;;;;;;9.82;5.35;;;;;;;20.57;59.37;99229.56;3163335;28;20054;-64
2023/07/01 03:53:34;;;;;;;8.57;5.25;;;;;;;20.52;59.34;99231.81;3169421;28;20052;-64
2023/07/01 03:55:08;;;;;;;11.30;5.70;;;;;;;20.48;59.65;99229.59;3170769;28;20104;-64
2023/07/01 03:56:40;;;;;;;7.50;4.85;;;;;;;20.53;59.63;99235.28;3170691;28;20048;-65
2023/07/01 03:58:21;;;;;;;6.93;4.80;;;;;;;20.54;59.51;99240.44;3170932;28;20048;-64
2023/07/01 03:59:53;;;;;;;11.93;5.53;;;;;;;20.54;59.37;99240.44;3170678;28;20043;-67
2023/07/01 04:01:27;;;;;;;8.75;4.80;;;;;;;20.57;59.38;99240.13;3160748;28;20055;-66
2023/07/01 04:03:05;;;;;;;;;;;;;;;20.45;59.46;99241.28;3168288;28;20243;-65
2023/07/01 04:04:37;;;;;;;7.65;5.15;;;;;;;20.52;59.54;99239.75;3171015;28;19923;-66
2023/07/01 04:06:08;;;;;;;13.35;6.72;;;;;;;20.55;59.62;99236.81;3171012;28;20191;-66
2023/07/01 04:07:42;;;;;;;7.15;5.28;;;;;;;20.53;59.20;99228.19;3154158;28;20048;-64
2023/07/01 04:09:14;;;;;;;5.35;4.57;;;;;;;20.59;59.35;99240.00;3166727;28;20059;-65
2023/07/01 04:10:45;;;;;;;7.53;5.03;;;;;;;20.60;58.91;99239.00;3170944;28;20052;-64
2023/07/01 04:12:18;;;;;;;7.25;5.18;;;;;;;20.62;59.16;99237.06;3170969;28;20040;-64
2023/07/01 04:13:50;;;;;;;19.40;10.18;;;;;;;20.60;58.67;99223.97;3170287;28;20100;-64
2023/07/01 04:15:23;;;;;;;8.80;4.43;;;;;;;20.66;58.65;99227.84;3170533;28;20056;-63
2023/07/01 04:16:55;;;;;;;11.80;4.78;;;;;;;20.67;58.42;99224.22;3165583;28;20081;-63
2023/07/01 04:18:28;;;;;;;6.95;4.20;;;;;;;20.72;58.46;99229.91;3162984;28;20047;-63
2023/07/01 04:20:00;;;;;;;;;;;;;;;20.57;58.46;99231.38;3170837;28;20043;-65
2023/07/01 04:21:31;;;;;;;7.47;4.22;;;;;;;20.61;58.28;99230.91;3167102;28;19926;-66
2023/07/01 04:23:03;;;;;;;10.38;3.85;;;;;;;20.64;58.21;99235.09;3160382;28;20052;-66
2023/07/01 04:24:35;;;;;;;7.18;4.55;;;;;;;20.64;57.94;99230.63;3169399;28;20043;-66
2023/07/01 04:26:07;;;;;;;6.03;3.90;;;;;;;20.63;57.78;99234.25;3170084;28;20528;-65
2023/07/01 04:27:40;;;;;;;6.75;3.88;;;;;;;20.63;57.87;99244.84;3165354;28;20063;-66
2023/07/01 04:29:12;;;;;;;6.50;4.13;;;;;;;20.61;57.65;99245.97;3157560;28;20055;-68
2023/07/01 04:30:44;;;;;;;7.35;3.85;;;;;;;20.60;57.54;99245.13;3145303;28;20052;-67
2023/07/01 04:32:16;;;;;;;7.05;4.00;;;;;;;20.63;57.72;99252.78;3168793;28;20647;-67
2023/07/01 04:33:49;;;;;;;7.75;4.47;;;;;;;20.64;57.65;99257.06;3170480;28;20044;-66
2023/07/01 04:35:21;;;;;;;6.95;4.35;;;;;;;20.62;57.70;99259.06;3170212;28;20047;-65
2023/07/01 04:36:53;;;;;;;7.00;4.15;;;;;;;20.64;57.17;99267.66;3164024;28;20048;-67
2023/07/01 04:38:25;;;;;;;4.15;3.75;;;;;;;20.65;57.33;99266.69;3167409;28;20393;-68
2023/07/01 04:39:55;;;;;;;6.07;4.28;;;;;;;20.64;57.41;99262.38;3169998;28;20059;-63
2023/07/01 04:41:27;;;;;;;6.97;3.63;;;;;;;20.67;57.11;99263.88;3170130;28;20489;-62
2023/07/01 04:42:59;;;;;;;5.53;4.47;;;;;;;20.69;57.13;99256.66;3163564;28;20056;-64
2023/07/01 04:44:30;;;;;;;8.93;3.78;;;;;;;20.71;57.25;99256.53;3163616;28;20412;-65
2023/07/01 04:46:03;;;;;;;6.60;4.50;;;;;;;20.70;57.06;99258.31;3169771;28;20046;-65
2023/07/01 04:47:35;;;;;;;7.05;3.95;;;;;;;20.72;57.07;99258.19;3170554;28;20051;-65
2023/07/01 04:49:08;;;;;;;4.75;4.25;;;;;;;20.65;56.79;99247.34;3170059;28;20508;-63
2023/07/01 04:50:40;;;;;;;8.00;4.82;;;;;;;20.79;56.98;99259.22;3169973;28;20134;-64
2023/07/01 04:52:14;;;;;;;8.60;4.60;;;;;;;20.82;57.22;99264.22;3163268;28;20048;-61
2023/07/01 04:53:46;;;;;;;4.40;3.72;;;;;;;20.85;57.10;99266.59;3170166;28;20134;-64
2023/07/01 04:55:18;;;;;;;5.93;4.03;;;;;;;20.89;56.98;99263.50;3170138;28;20054;-65
2023/07/01 04:56:49;;;;;;;6.90;4.18;;;;;;;20.93;57.07;99258.75;3169794;28;20052;-67
2023/07/01 04:58:21;;;;;;;5.57;3.85;;;;;;;20.97;56.79;99256.63;3169302;28;20074;-68
2023/07/01 04:59:53;;;;;;;5.00;3.33;;;;;;;20.94;56.62;99252.50;3169890;28;20051;-68
2023/07/01 05:01:25;;;;;;;4.65;4.00;;;;;;;20.93;56.80;99249.97;3160399;28;20200;-67
2023/07/01 05:02:57;;;;;;;7.65;3.38;;;;;;;20.96;56.78;99253.16;3170032;28;20117;-68
2023/07/01 05:04:30;;;;;;;4.93;3.42;;;;;;;20.99;56.51;99247.56;3145070;28;20055;-70
2023/07/01 05:06:03;;;;;;;11.57;4.20;;;;;;;20.96;56.68;99247.84;3169102;28;20524;-73
2023/07/01 05:07:33;;;;;;;6.65;3.90;;;;;;;21.00;56.34;99253.69;3169358;28;20389;-74
2023/07/01 05:09:06;;;;;;;5.78;3.88;;;;;;;21.01;56.30;99247.41;3169912;28;20051;-73
2023/07/01 05:10:37;;;;;;;7.30;3.45;;;;;;;21.06;56.20;99253.06;3169918;28;20075;-72
2023/07/01 05:12:09;;;;;;;5.28;4.13;;;;;;;21.10;56.22;99260.59;3169815;28;20079;-73
2023/07/01 05:13:40;;;;;;;6.55;3.25;;;;;;;21.11;56.31;99254.28;3169606;28;20634;-72
2023/07/01 05:15:12;;;;;;;7.13;3.40;;;;;;;21.13;55.97;99260.28;3163927;28;20044;-76
2023/07/01 05:16:44;;;;;;;8.05;3.90;;;;;;;21.14;56.13;99264.59;3160184;28;20054;-74
2023/07/01 05:18:16;;;;;;;7.22;3.75;;;;;;;21.12;56.28;99252.50;3167036;28;20052;-73
2023/07/01 05:19:49;;;;;;;4.75;3.60;;;;;;;21.17;56.08;99242.28;3158790;28;20407;-74
2023/07/01 05:21:21;;;;;;;4.65;3.22;;;;;;;21.25;55.78;99249.47;3159272;28;20452;-73
2023/07/01 05:22:53;;;;;;;8.20;3.80;;;;;;;21.27;55.78;99239.56;3169520;28;20148;-70
2023/07/01 05:24:24;;;;;;;5.82;3.92;;;;;;;21.32;55.71;99245.22;3165016;28;20090;-71
2023/07/01 05:25:56;;;;;;;7.47;3.47;;;;;;;21.36;55.30;99251.94;3170828;28;20166;-70
2023/07/01 05:27:28;;;;;;;10.27;3.88;;;;;;;21.39;55.36;99248.16;3172188;28;20058;-68
2023/07/01 05:29:00;;;;;;;6.70;3.63;;;;;;;21.44;55.05;99251.16;3172084;28;20047;-70
2023/07/01 05:30:32;;;;;;;5.18;3.83;;;;;;;21.51;55.05;99260.19;3172217;28;20043;-66
2023/07/01 05:32:05;;;;;;;6.32;4.10;;;;;;;21.52;55.12;99257.38;3172277;28;20047;-66
2023/07/01 05:33:37;;;;;;;4.65;3.47;;;;;;;21.54;54.76;99252.75;3172159;28;20505;-68
2023/07/01 05:35:10;;;;;;;6.03;3.60;;;;;;;21.58;55.12;99254.09;3172446;28;20668;-68
2023/07/01 05:36:42;;;;;;;7.82;3.88;;;;;;;21.62;55.18;99257.28;3167140;28;20048;-66
2023/07/01 05:38:14;;;;;;;5.32;3.22;;;;;;;21.68;54.83;99255.81;3172127;28;20476;-68
2023/07/01 05:39:46;;;;;;;5.18;3.63;;;;;;;21.75;55.05;99254.25;3171048;28;20157;-70
2023/07/01 05:41:18;;;;;;;8.35;4.28;;;;;;;21.80;54.52;99252.78;3171575;28;20054;-70
2023/07/01 05:42:49;;;;;;;8.05;4.43;;;;;;;21.77;54.75;99239.03;3167484;28;20052;-67
2023/07/01 05:44:21;;;;;;;5.35;3.65;;;;;;;21.91;54.58;99248.22;3166138;28;20431;-67
2023/07/01 05:45:53;;;;;;;8.32;3.85;;;;;;;21.97;54.69;99245.75;3171996;28;20048;-68
2023/07/01 05:47:25;;;;;;;8.00;4.30;;;;;;;22.02;54.30;99248.78;3171508;28;20390;-71
2023/07/01 05:48:57;;;;;;;5.65;4.65;;;;;;;22.06;54.16;99246.66;3171896;28;20148;-66
2023/07/01 05:50:30;;;;;;;7.38;4.43;;;;;;;22.13;54.22;99250.38;3172226;28;20040;-65
2023/07/01 05:52:02;;;;;;;7.22;4.30;;;;;;;22.14;54.36;99244.06;3161883;28;20094;-68
2023/07/01 05:53:34;;;;;;;10.10;3.95;;;;;;;22.19;54.59;99249.75;3155777;28;20048;-69
2023/07/01 05:55:07;;;;;;;9.13;4.38;;;;;;;22.23;54.55;99245.78;3152412;28;20238;-71
2023/07/01 05:56:38;;;;;;;8.18;3.97;;;;;;;22.28;54.41;99244.50;3155123;28;20048;-67
2023/07/01 05:58:10;;;;;;;7.18;4.15;;;;;;;22.31;54.48;99247.66;3160734;28;20453;-67
2023/07/01 05:59:42;;;;;;;5.50;4.15;;;;;;;22.37;53.97;99247.03;3156546;28;20052;-68
2023/07/01 06:01:13;;;;;;;11.10;4.85;;;;;;;22.41;53.98;99250.19;3161360;28;20048;-69
2023/07/01 06:02:45;;;;;;;8.15;3.65;;;;;;;22.47;53.45;99254.88;3153669;28;20454;-67
2023/07/01 06:04:17;;;;;;;6.05;3.22;;;;;;;22.51;53.53;99252.72;3151807;28;20055;-66
2023/07/01 06:05:50;;;;;;;7.47;3.67;;;;;;;22.56;53.52;99250.44;3156655;28;20052;-71
2023/07/01 06:07:21;;;;;;;;;;;;;;;22.45;53.43;99252.38;3158959;28;20074;-71
2023/07/01 06:08:53;;;;;;;6.13;3.75;;;;;;;22.57;53.59;99249.44;3155095;28;19920;-73
2023/07/01 06:10:25;;;;;;;5.45;3.50;;;;;;;22.65;53.16;99239.69;3160861;28;20113;-73
2023/07/01 06:11:57;;;;;;;7.13;3.90;;;;;;;22.75;52.81;99244.06;3169460;28;20074;-70
2023/07/01 06:13:29;;;;;;;7.03;4.07;;;;;;;22.82;52.68;99242.41;3156967;28;20052;-67
2023/07/01 06:15:01;;;;;;;7.35;4.18;;;;;;;22.87;52.40;99250.72;3168764;28;20051;-66
2023/07/01 06:16:33;;;;;;;9.02;4.28;;;;;;;22.92;52.34;99249.25;3168750;28;20055;-67
2023/07/01 06:18:05;;;;;;;4.15;3.35;;;;;;;22.99;52.00;99251.28;3167548;28;20048;-63
2023/07/01 06:19:36;;;;;;;5.78;3.63;;;;;;;23.06;51.89;99250.44;3171452;28;20051;-68
2023/07/01 06:21:10;;;;;;;5.95;4.07;;;;;;;23.08;51.67;99251.13;3169930;28;20052;-71
2023/07/01 06:22:41;;;;;;;;;;;;;;;23.00;52.30;99245.78;3163508;28;20070;-72
2023/07/01 06:24:13;;;;;;;4.78;3.75;;;;;;;23.10;51.72;99257.13;3171934;28;19920;-70
2023/07/01 06:25:45;;;;;;;6.22;4.10;;;;;;;23.19;51.63;99246.50;3170964;28;20073;-74
2023/07/01 06:27:17;;;;;;;7.18;3.63;;;;;;;23.28;51.71;99245.50;3171732;28;20039;-67
2023/07/01 06:28:48;;;;;;;4.43;3.35;;;;;;;23.37;51.22;99253.34;3170883;28;20114;-67
2023/07/01 06:30:19;;;;;;;7.13;3.45;;;;;;;23.46;51.46;99256.00;3172048;28;20128;-68
2023/07/01 06:31:51;;;;;;;7.55;3.88;;;;;;;23.54;51.17;99255.97;3171299;28;20051;-69
2023/07/01 06:33:23;;;;;;;6.20;4.10;;;;;;;23.58;51.15;99260.81;3171324;28;20059;-70
2023/07/01 06:34:55;;;;;;;7.80;3.50;;;;;;;23.62;50.71;99258.66;3171743;28;20055;-70
2023/07/01 06:36:28;;;;;;;8.18;4.00;;;;;;;23.72;50.41;99258.50;3168828;28;20047;-72
2023/07/01 06:37:59;;;;;;;7.45;4.03;;;;;;;23.74;50.15;99257.34;3163900;28;20048;-68
2023/07/01 06:39:34;;;;;;;8.73;4.32;;;;;;;23.80;50.36;99259.34;3170904;28;20044;-67
2023/07/01 06:41:06;;;;;;;7.10;4.57;;;;;;;23.87;50.05;99263.97;3171827;28;20046;-71
2023/07/01 06:42:37;;;;;;;39.13;28.00;;;;;;;23.96;50.15;99260.31;3168455;28;20055;-72
2023/07/01 06:44:09;;;;;;;10.13;6.47;;;;;;;24.04;49.88;99249.66;3165112;28;20108;-71
2023/07/01 06:45:41;;;;;;;10.68;5.40;;;;;;;24.12;50.21;99254.97;3170613;28;20125;-73
2023/07/01 06:47:13;;;;;;;6.05;4.10;;;;;;;24.14;49.98;99250.31;3171418;28;20052;-73
2023/07/01 06:48:45;;;;;;;7.45;4.30;;;;;;;24.23;49.74;99257.28;3170857;28;20044;-70
2023/07/01 06:50:16;;;;;;;10.38;4.03;;;;;;;24.31;49.38;99251.09;3171230;28;20138;-72
2023/07/01 06:51:49;;;;;;;5.13;3.67;;;;;;;24.41;49.20;99253.56;3169053;28;20048;-72
2023/07/01 06:53:21;;;;;;;8.60;3.25;;;;;;;24.45;49.23;99252.25;3171535;28;20127;-70
2023/07/01 06:54:53;;;;;;;9.48;3.70;;;;;;;24.58;48.39;99247.22;3171120;28;20567;-67
2023/07/01 06:56:25;;;;;;;8.18;3.80;;;;;;;24.70;48.45;99245.00;3170927;28;20052;-67
2023/07/01 06:57:56;;;;;;;5.03;3.90;;;;;;;24.82;48.31;99242.78;3171515;28;20048;-67
2023/07/01 06:59:28;;;;;;;12.25;3.92;;;;;;;24.93;47.96;99235.19;3171333;28;20177;-66
2023/07/01 07:01:00;;;;;;;7.40;3.80;;;;;;;25.04;48.05;99233.16;3169400;28;20440;-68
2023/07/01 07:02:30;;;;;;;6.25;3.40;;;;;;;25.10;47.56;99235.94;3163222;28;20422;-68
2023/07/01 07:04:02;;;;;;;7.25;3.90;;;;;;;25.16;47.45;99229.94;3171316;28;20057;-68
2023/07/01 07:05:34;;;;;;;10.40;3.67;;;;;;;25.26;47.34;99234.19;3171216;28;20120;-67
2023/07/01 07:07:06;;;;;;;4.32;3.50;;;;;;;25.34;47.03;99231.47;3164700;28;20044;-70
2023/07/01 07:08:38;;;;;;;5.45;3.47;;;;;;;25.41;46.60;99233.28;3171095;28;20047;-68
2023/07/01 07:10:11;;;;;;;4.20;3.13;;;;;;;25.51;46.59;99230.34;3171384;28;20043;-67
2023/07/01 07:11:43;;;;;;;9.52;3.80;;;;;;;25.60;46.22;99231.13;3171283;28;20062;-67
2023/07/01 07:13:15;;;;;;;4.33;3.87;;;;;;;25.65;46.05;99229.56;3165230;28;20047;-67
2023/07/01 07:14:47;;;;;;;5.03;3.25;;;;;;;25.74;45.55;99229.50;3169420;28;20055;-67
2023/07/01 07:16:19;;;;;;;4.80;3.20;;;;;;;25.73;45.70;99230.50;3170126;28;20058;-67